createdAt,value
2022-12-04T00:01:19.825Z,1.50
2022-12-04T00:03:47.171Z,1.50
2022-12-04T00:06:18.317Z,1.50
2022-12-04T00:08:46.335Z,1.50
2022-12-04T00:11:17.971Z,1.40
2022-12-04T00:13:45.173Z,1.40
2022-12-04T00:16:16.839Z,1.40
2022-12-04T00:18:44.093Z,1.40
2022-12-04T00:21:14.740Z,1.40
2022-12-04T00:23:42.491Z,1.40
2022-12-04T00:26:31.148Z,1.50
2022-12-04T00:28:58.067Z,1.50
2022-12-04T00:31:28.959Z,1.40
2022-12-04T00:33:56.471Z,1.40
2022-12-04T00:36:25.895Z,1.40
2022-12-04T00:38:53.414Z,1.30
2022-12-04T00:41:25.101Z,1.30
2022-12-04T00:43:53.118Z,1.30
2022-12-04T00:46:20.525Z,1.30
2022-12-04T00:48:47.770Z,1.30
2022-12-04T00:51:19.011Z,1.30
2022-12-04T00:53:46.223Z,1.30
2022-12-04T00:56:25.638Z,1.40
2022-12-04T00:58:55.257Z,1.30
2022-12-04T01:01:23.660Z,1.30
2022-12-04T01:03:51.710Z,1.30
2022-12-04T01:06:34.250Z,1.30
2022-12-04T01:09:04.866Z,1.30
2022-12-04T01:11:32.826Z,1.30
2022-12-04T01:14:00.630Z,1.30
2022-12-04T01:16:36.884Z,1.30
2022-12-04T01:19:07.637Z,1.30
2022-12-04T01:21:34.897Z,1.40
2022-12-04T01:24:02.328Z,1.40
2022-12-04T01:26:29.348Z,1.30
2022-12-04T01:28:56.381Z,1.20
2022-12-04T01:31:25.908Z,1.30
2022-12-04T01:33:52.912Z,1.30
2022-12-04T01:36:24.474Z,1.20
2022-12-04T01:38:51.546Z,1.20
2022-12-04T01:41:22.872Z,1.20
2022-12-04T01:44:15.104Z,1.20
2022-12-04T01:46:45.199Z,1.20
2022-12-04T01:49:20.987Z,1.20
2022-12-04T01:51:53.178Z,1.20
2022-12-04T01:54:37.596Z,1.20
2022-12-04T01:57:14.954Z,1.20
2022-12-04T02:00:06.379Z,1.30
2022-12-04T02:02:37.278Z,1.30
2022-12-04T02:05:08.382Z,1.30
2022-12-04T02:07:36.269Z,1.20
2022-12-04T02:10:08.617Z,1.20
2022-12-04T02:13:17.280Z,1.20
2022-12-04T02:16:22.045Z,1.20
2022-12-04T02:19:24.789Z,1.00
2022-12-04T02:21:55.276Z,1.00
2022-12-04T02:24:50.833Z,1.00
2022-12-04T02:27:48.315Z,1.10
2022-12-04T02:30:15.484Z,1.10
2022-12-04T02:32:45.556Z,1.10
2022-12-04T02:35:25.446Z,1.00
2022-12-04T02:38:07.302Z,1.10
2022-12-04T02:40:44.954Z,1.10
2022-12-04T02:43:19.430Z,1.20
2022-12-04T02:46:21.969Z,1.20
2022-12-04T02:48:52.225Z,1.20
2022-12-04T02:51:21.824Z,1.20
2022-12-04T02:53:55.563Z,1.20
2022-12-04T02:56:32.366Z,1.30
2022-12-04T02:59:06.022Z,1.10
2022-12-04T03:01:38.936Z,1.10
2022-12-04T03:04:17.715Z,1.10
2022-12-04T03:06:52.955Z,1.20
2022-12-04T03:09:29.894Z,1.20
2022-12-04T03:12:10.766Z,1.30
2022-12-04T03:14:43.008Z,1.30
2022-12-04T03:17:35.239Z,1.20
2022-12-04T03:20:09.850Z,1.10
2022-12-04T03:22:41.620Z,1.10
2022-12-04T03:25:10.223Z,1.10
2022-12-04T03:27:54.825Z,1.20
2022-12-04T03:30:23.957Z,1.20
2022-12-04T03:33:02.843Z,1.10
2022-12-04T03:35:48.943Z,1.10
2022-12-04T03:39:07.870Z,1.00
2022-12-04T03:41:55.319Z,1.10
2022-12-04T03:44:36.250Z,1.00
2022-12-04T03:47:17.910Z,1.00
2022-12-04T03:49:51.495Z,1.00
2022-12-04T03:52:53.478Z,0.90
2022-12-04T03:55:34.513Z,1.00
2022-12-04T03:58:09.795Z,1.00
2022-12-04T04:00:41.885Z,1.00
2022-12-04T04:03:30.387Z,1.00
2022-12-04T04:06:16.053Z,1.00
2022-12-04T04:08:48.705Z,1.00
2022-12-04T04:11:25.530Z,1.00
2022-12-04T04:14:34.296Z,1.00
2022-12-04T04:17:26.354Z,1.00
2022-12-04T04:20:23.803Z,1.00
2022-12-04T04:23:14.081Z,1.00
2022-12-04T04:25:44.491Z,1.00
2022-12-04T04:28:37.504Z,1.00
2022-12-04T04:31:15.069Z,0.90
2022-12-04T04:34:22.236Z,0.90
2022-12-04T04:37:17.049Z,0.90
2022-12-04T04:40:26.075Z,1.00
2022-12-04T04:43:25.818Z,0.80
2022-12-04T04:46:23.740Z,0.80
2022-12-04T04:48:58.121Z,0.90
2022-12-04T04:51:26.502Z,0.80
2022-12-04T04:53:58.609Z,0.80
2022-12-04T04:56:25.817Z,0.80
2022-12-04T04:58:52.617Z,0.80
2022-12-04T05:01:24.250Z,0.80
2022-12-04T05:03:51.236Z,0.80
2022-12-04T05:06:18.557Z,0.80
2022-12-04T05:08:46.421Z,0.80
2022-12-04T05:11:15.386Z,0.80
2022-12-04T05:13:43.145Z,0.80
2022-12-04T05:16:14.949Z,0.70
2022-12-04T05:19:01.228Z,0.80
2022-12-04T05:21:28.305Z,0.90
2022-12-04T05:23:55.178Z,0.80
2022-12-04T05:26:21.978Z,0.90
2022-12-04T05:28:48.918Z,0.90
2022-12-04T05:31:15.796Z,0.90
2022-12-04T05:33:42.779Z,0.80
2022-12-04T05:36:11.125Z,0.90
2022-12-04T05:38:38.188Z,0.80
2022-12-04T05:41:06.724Z,0.90
2022-12-04T05:43:35.088Z,1.00
2022-12-04T05:46:07.775Z,0.90
2022-12-04T05:48:35.922Z,0.90
2022-12-04T05:51:10.573Z,0.80
2022-12-04T05:53:38.419Z,0.90
2022-12-04T05:56:07.505Z,0.80
2022-12-04T05:58:36.711Z,0.80
2022-12-04T06:01:23.092Z,0.80
2022-12-04T06:03:50.469Z,0.80
2022-12-04T06:06:23.502Z,0.80
2022-12-04T06:08:52.479Z,0.90
2022-12-04T06:11:27.208Z,0.90
2022-12-04T06:13:54.870Z,0.80
2022-12-04T06:16:26.997Z,0.70
2022-12-04T06:19:00.325Z,0.70
2022-12-04T06:21:30.023Z,0.60
2022-12-04T06:23:56.895Z,0.70
2022-12-04T06:26:25.187Z,0.70
2022-12-04T06:28:56.972Z,0.70
2022-12-04T06:31:26.544Z,0.70
2022-12-04T06:33:55.462Z,0.70
2022-12-04T06:36:23.568Z,0.70
2022-12-04T06:38:52.014Z,0.80
2022-12-04T06:41:21.283Z,0.80
2022-12-04T06:43:48.973Z,0.80
2022-12-04T06:46:20.370Z,0.80
2022-12-04T06:48:47.658Z,0.70
2022-12-04T06:51:27.724Z,0.70
2022-12-04T06:53:55.797Z,0.70
2022-12-04T06:56:28.222Z,0.70
2022-12-04T06:58:58.035Z,0.70
2022-12-04T07:01:29.297Z,0.60
2022-12-04T07:03:58.257Z,0.70
2022-12-04T07:06:37.329Z,0.70
2022-12-04T07:09:05.811Z,0.80
2022-12-04T07:11:33.795Z,0.80
2022-12-04T07:14:00.749Z,0.80
2022-12-04T07:16:28.905Z,0.70
2022-12-04T07:18:57.362Z,0.80
2022-12-04T07:21:27.936Z,0.90
2022-12-04T07:23:57.978Z,0.90
2022-12-04T07:26:26.554Z,0.80
2022-12-04T07:28:55.321Z,0.90
2022-12-04T07:31:26.357Z,0.90
2022-12-04T07:33:54.501Z,0.90
2022-12-04T07:36:23.437Z,0.80
2022-12-04T07:38:51.006Z,0.90
2022-12-04T07:41:19.274Z,0.90
2022-12-04T07:43:47.128Z,1.00
2022-12-04T07:46:18.928Z,1.10
2022-12-04T07:48:46.663Z,1.10
2022-12-04T07:51:22.742Z,1.00
2022-12-04T07:53:51.407Z,1.10
2022-12-04T07:56:19.894Z,1.00
2022-12-04T07:58:47.237Z,1.10
2022-12-04T08:01:23.857Z,1.00
2022-12-04T08:03:56.067Z,0.90
2022-12-04T08:06:26.485Z,1.00
2022-12-04T08:08:54.027Z,1.10
2022-12-04T08:11:26.800Z,1.10
2022-12-04T08:14:03.069Z,1.00
2022-12-04T08:16:32.406Z,0.90
2022-12-04T08:19:00.896Z,1.00
2022-12-04T08:21:30.665Z,1.00
2022-12-04T08:23:59.284Z,0.90
2022-12-04T08:26:29.725Z,1.00
2022-12-04T08:28:57.852Z,1.00
2022-12-04T08:31:28.163Z,1.10
2022-12-04T08:33:58.985Z,1.00
2022-12-04T08:36:26.458Z,1.10
2022-12-04T08:38:53.838Z,1.10
2022-12-04T08:41:24.069Z,1.10
2022-12-04T08:43:54.806Z,1.20
2022-12-04T08:46:24.016Z,1.20
2022-12-04T08:48:50.878Z,1.20
2022-12-04T08:51:24.861Z,1.20
2022-12-04T08:53:57.378Z,1.20
2022-12-04T08:56:25.902Z,1.20
2022-12-04T08:58:52.971Z,1.30
2022-12-04T09:01:20.154Z,1.30
2022-12-04T09:03:47.029Z,1.30
2022-12-04T09:06:16.159Z,1.20
2022-12-04T09:08:43.437Z,1.20
2022-12-04T09:11:20.470Z,1.30
2022-12-04T09:13:47.896Z,1.30
2022-12-04T09:16:18.623Z,1.30
2022-12-04T09:18:46.330Z,1.40
2022-12-04T09:21:16.579Z,1.40
2022-12-04T09:23:43.925Z,1.40
2022-12-04T09:26:31.968Z,1.50
2022-12-04T09:29:01.510Z,1.50
2022-12-04T09:31:29.667Z,1.50
2022-12-04T09:33:59.392Z,1.50
2022-12-04T09:36:26.745Z,1.60
2022-12-04T09:38:54.734Z,1.50
2022-12-04T09:41:36.653Z,1.50
2022-12-04T09:44:18.483Z,1.50
2022-12-04T09:47:12.141Z,1.50
2022-12-04T09:49:46.724Z,1.40
2022-12-04T09:52:48.052Z,1.50
2022-12-04T09:55:24.606Z,1.60
2022-12-04T09:58:01.347Z,1.60
2022-12-04T10:00:31.522Z,1.70
2022-12-04T10:03:07.028Z,1.80
2022-12-04T10:06:02.032Z,1.80
2022-12-04T10:08:35.464Z,1.80
2022-12-04T10:11:48.514Z,1.80
2022-12-04T10:15:00.805Z,1.70
2022-12-04T10:18:16.053Z,1.70
2022-12-04T10:21:17.141Z,1.70
2022-12-04T10:24:06.089Z,1.60
2022-12-04T10:26:44.854Z,1.70
2022-12-04T10:29:31.063Z,1.80
2022-12-04T10:32:17.844Z,1.80
2022-12-04T10:34:46.210Z,1.80
2022-12-04T10:37:15.241Z,1.80
2022-12-04T10:40:10.238Z,1.90
2022-12-04T10:42:48.701Z,1.80
2022-12-04T10:45:15.577Z,1.80
2022-12-04T10:47:48.745Z,1.90
2022-12-04T10:50:18.907Z,1.90
2022-12-04T10:52:46.006Z,2.00
2022-12-04T10:55:13.513Z,2.10
2022-12-04T10:57:45.398Z,2.00
2022-12-04T11:00:34.550Z,2.00
2022-12-04T11:03:09.590Z,1.90
2022-12-04T11:05:51.696Z,2.00
2022-12-04T11:08:26.254Z,2.10
2022-12-04T11:11:15.128Z,2.10
2022-12-04T11:13:43.097Z,2.10
2022-12-04T11:16:36.053Z,2.10
2022-12-04T11:19:03.057Z,2.00
2022-12-04T11:21:32.186Z,2.00
2022-12-04T11:23:59.320Z,1.90
2022-12-04T11:26:36.887Z,2.00
2022-12-04T11:29:05.352Z,2.00
2022-12-04T11:31:33.302Z,2.10
2022-12-04T11:34:08.712Z,2.00
2022-12-04T11:36:42.300Z,2.10
2022-12-04T11:39:18.706Z,2.00
2022-12-04T11:41:45.877Z,2.00
2022-12-04T11:44:26.902Z,2.00
2022-12-04T11:46:58.238Z,2.10
2022-12-04T11:49:27.176Z,2.00
2022-12-04T11:52:27.566Z,2.00
2022-12-04T11:55:04.582Z,2.00
2022-12-04T11:57:53.047Z,2.00
2022-12-04T12:00:22.357Z,2.00
2022-12-04T12:03:28.114Z,2.00
2022-12-04T12:06:24.036Z,2.10
2022-12-04T12:09:24.695Z,2.20
2022-12-04T12:12:29.890Z,2.20
2022-12-04T12:15:56.975Z,2.10
2022-12-04T12:19:08.516Z,2.10
2022-12-04T12:22:14.345Z,2.00
2022-12-04T12:24:58.812Z,2.00
2022-12-04T12:28:04.457Z,1.90
2022-12-04T12:30:55.358Z,2.00
2022-12-04T12:33:28.821Z,1.90
2022-12-04T12:36:12.020Z,2.00
2022-12-04T12:39:03.780Z,1.90
2022-12-04T12:41:49.041Z,2.00
2022-12-04T12:44:26.857Z,2.00
2022-12-04T12:47:13.016Z,1.90
2022-12-04T12:50:02.081Z,1.70
2022-12-04T12:52:55.413Z,1.70
2022-12-04T12:56:01.837Z,1.80
2022-12-04T12:58:38.542Z,1.80
2022-12-04T13:01:33.537Z,1.80
2022-12-04T13:04:10.413Z,1.80
2022-12-04T13:06:44.105Z,1.80
2022-12-04T13:09:29.829Z,1.80
2022-12-04T13:12:06.821Z,1.80
2022-12-04T13:14:33.643Z,1.90
2022-12-04T13:17:33.321Z,2.10
2022-12-04T13:20:09.861Z,2.10
2022-12-04T13:23:11.636Z,2.10
2022-12-04T13:25:57.224Z,2.10
2022-12-04T13:28:58.578Z,2.00
2022-12-04T13:31:59.556Z,1.90
2022-12-04T13:35:04.794Z,1.90
2022-12-04T13:38:08.275Z,1.80
2022-12-04T13:40:48.162Z,1.80
2022-12-04T13:43:42.323Z,1.80
2022-12-04T13:46:39.553Z,1.90
2022-12-04T13:49:19.495Z,2.00
2022-12-04T13:51:48.671Z,2.10
2022-12-04T13:54:15.564Z,2.10
2022-12-04T13:56:46.063Z,2.10
2022-12-04T13:59:27.170Z,2.10
2022-12-04T14:02:08.314Z,2.00
2022-12-04T14:05:08.462Z,2.00
2022-12-04T14:07:39.419Z,2.10
2022-12-04T14:10:36.466Z,2.00
2022-12-04T14:13:24.121Z,2.00
2022-12-04T14:16:10.064Z,2.00
2022-12-04T14:18:37.994Z,2.00
2022-12-04T14:21:06.683Z,1.90
2022-12-04T14:23:39.114Z,1.90
2022-12-04T14:26:19.596Z,1.90
2022-12-04T14:28:46.647Z,2.00
2022-12-04T14:31:33.218Z,2.00
2022-12-04T14:34:22.696Z,2.00
2022-12-04T14:36:52.326Z,1.90
2022-12-04T14:39:36.695Z,1.90
2022-12-04T14:42:28.210Z,1.90
2022-12-04T14:45:00.257Z,2.00
2022-12-04T14:47:56.728Z,1.90
2022-12-04T14:51:10.866Z,1.90
2022-12-04T14:54:01.306Z,1.90
2022-12-04T14:57:06.583Z,1.90
2022-12-04T14:59:45.853Z,1.80
2022-12-04T15:02:39.109Z,1.80
2022-12-04T15:05:20.279Z,1.90
2022-12-04T15:07:54.170Z,1.90
2022-12-04T15:10:58.401Z,1.80
2022-12-04T15:13:37.533Z,1.90
2022-12-04T15:16:22.585Z,1.90
2022-12-04T15:19:00.717Z,1.90
2022-12-04T15:21:40.160Z,2.00
2022-12-04T15:24:24.329Z,1.90
2022-12-04T15:26:53.568Z,1.90
2022-12-04T15:29:29.822Z,1.90
2022-12-04T15:32:03.690Z,1.90
2022-12-04T15:34:41.091Z,2.00
2022-12-04T15:37:31.382Z,1.90
2022-12-04T15:39:59.313Z,1.90
2022-12-04T15:42:29.757Z,2.00
2022-12-04T15:45:03.633Z,1.90
2022-12-04T15:47:33.332Z,1.90
2022-12-04T15:50:10.368Z,1.90
2022-12-04T15:52:37.652Z,1.90
2022-12-04T15:55:08.929Z,1.90
2022-12-04T15:57:43.878Z,1.90
2022-12-04T16:00:38.840Z,1.90
2022-12-04T16:03:30.907Z,1.90
2022-12-04T16:06:27.369Z,1.90
2022-12-04T16:09:17.044Z,1.90
2022-12-04T16:11:44.144Z,1.80
2022-12-04T16:14:20.213Z,1.80
2022-12-04T16:16:51.124Z,1.80
2022-12-04T16:19:32.037Z,1.80
2022-12-04T16:22:01.221Z,1.70
2022-12-04T16:24:28.675Z,1.70
2022-12-04T16:26:56.663Z,1.70
2022-12-04T16:29:24.408Z,1.70
2022-12-04T16:31:51.654Z,1.70
2022-12-04T16:34:18.897Z,1.70
2022-12-04T16:36:45.849Z,1.70
2022-12-04T16:39:12.710Z,1.70
2022-12-04T16:41:40.664Z,1.80
2022-12-04T16:44:15.148Z,1.80
2022-12-04T16:46:42.914Z,1.80
2022-12-04T16:49:13.951Z,1.70
2022-12-04T16:51:50.060Z,1.70
2022-12-04T16:54:17.526Z,1.70
2022-12-04T16:56:44.510Z,1.70
2022-12-04T16:59:12.334Z,1.70
2022-12-04T17:01:47.770Z,1.70
2022-12-04T17:04:17.098Z,1.80
2022-12-04T17:06:45.094Z,1.80
2022-12-04T17:09:13.296Z,1.80
2022-12-04T17:11:40.978Z,1.80
2022-12-04T17:14:08.384Z,1.80
2022-12-04T17:16:43.992Z,1.70
2022-12-04T17:19:11.756Z,1.80
2022-12-04T17:21:40.394Z,1.80
2022-12-04T17:24:07.658Z,1.80
2022-12-04T17:26:34.737Z,1.70
2022-12-04T17:29:01.609Z,1.70
2022-12-04T17:31:29.021Z,1.80
2022-12-04T17:33:56.722Z,1.90
2022-12-04T17:36:26.180Z,1.80
2022-12-04T17:38:59.074Z,1.80
2022-12-04T17:41:26.112Z,1.80
2022-12-04T17:43:53.140Z,1.80
2022-12-04T17:46:24.425Z,1.80
2022-12-04T17:48:52.302Z,1.90
2022-12-04T17:51:22.864Z,1.90
2022-12-04T17:53:50.630Z,1.80
2022-12-04T17:56:23.539Z,1.80
2022-12-04T17:58:51.689Z,1.90
2022-12-04T18:01:28.250Z,1.90
2022-12-04T18:04:03.164Z,1.90
2022-12-04T18:06:40.599Z,1.90
2022-12-04T18:09:10.104Z,1.90
2022-12-04T18:11:39.328Z,1.90
2022-12-04T18:14:12.146Z,1.90
2022-12-04T18:16:43.686Z,1.90
2022-12-04T18:19:11.067Z,1.90
2022-12-04T18:21:38.243Z,1.80
2022-12-04T18:24:06.236Z,1.90
2022-12-04T18:26:39.928Z,1.90
2022-12-04T18:29:07.690Z,2.00
2022-12-04T18:31:35.365Z,2.10
2022-12-04T18:34:02.292Z,2.10
2022-12-04T18:36:31.800Z,2.00
2022-12-04T18:39:06.210Z,2.00
2022-12-04T18:41:33.327Z,2.00
2022-12-04T18:44:00.483Z,2.10
2022-12-04T18:46:27.498Z,2.20
2022-12-04T18:48:58.506Z,2.20
2022-12-04T18:51:29.852Z,2.20
2022-12-04T18:54:11.114Z,2.20
2022-12-04T18:56:38.421Z,2.20
2022-12-04T18:59:13.011Z,2.10
2022-12-04T19:01:41.238Z,2.00
2022-12-04T19:04:11.249Z,2.00
2022-12-04T19:06:41.741Z,2.00
2022-12-04T19:09:13.540Z,2.00
2022-12-04T19:11:41.510Z,1.90
2022-12-04T19:14:22.254Z,2.00
2022-12-04T19:16:50.513Z,1.90
2022-12-04T19:19:17.855Z,1.90
2022-12-04T19:21:44.896Z,1.90
2022-12-04T19:24:12.260Z,1.90
2022-12-04T19:26:40.403Z,1.80
2022-12-04T19:29:07.981Z,1.90
2022-12-04T19:31:37.918Z,2.00
2022-12-04T19:34:06.238Z,1.90
2022-12-04T19:36:34.775Z,2.00
2022-12-04T19:39:03.310Z,2.10
2022-12-04T19:41:34.327Z,2.20
2022-12-04T19:44:07.795Z,2.30
2022-12-04T19:46:41.792Z,2.30
2022-12-04T19:49:08.973Z,2.40
2022-12-04T19:51:38.445Z,2.40
2022-12-04T19:54:07.662Z,2.40
2022-12-04T19:56:35.688Z,2.40
2022-12-04T19:59:06.521Z,2.40
2022-12-04T20:01:34.970Z,2.30
2022-12-04T20:04:05.755Z,2.30
2022-12-04T20:06:41.697Z,2.20
2022-12-04T20:09:12.216Z,2.30
2022-12-04T20:11:39.847Z,2.30
2022-12-04T20:14:10.154Z,2.30
2022-12-04T20:16:37.938Z,2.40
2022-12-04T20:19:07.531Z,2.40
2022-12-04T20:21:34.947Z,2.40
2022-12-04T20:24:05.465Z,2.40
2022-12-04T20:26:39.036Z,2.40
2022-12-04T20:29:09.597Z,2.40
2022-12-04T20:31:39.488Z,2.40
2022-12-04T20:34:14.702Z,2.50
2022-12-04T20:36:44.902Z,2.50
2022-12-04T20:39:14.726Z,2.50
2022-12-04T20:41:42.068Z,2.40
2022-12-04T20:44:14.659Z,2.40
2022-12-04T20:46:42.802Z,2.40
2022-12-04T20:49:20.739Z,2.40
2022-12-04T20:51:49.709Z,2.40
2022-12-04T20:54:20.395Z,2.30
2022-12-04T20:56:49.013Z,2.40
2022-12-04T20:59:18.912Z,2.30
2022-12-04T21:01:46.639Z,2.30
2022-12-04T21:04:13.778Z,2.20
2022-12-04T21:06:41.644Z,2.10
2022-12-04T21:09:13.462Z,2.00
2022-12-04T21:11:52.916Z,1.90
2022-12-04T21:14:49.173Z,2.00
2022-12-04T21:17:19.137Z,1.90
2022-12-04T21:19:49.074Z,1.90
2022-12-04T21:22:18.967Z,1.90
2022-12-04T21:24:45.880Z,1.90
2022-12-04T21:27:17.407Z,1.90
2022-12-04T21:29:48.012Z,1.90
2022-12-04T21:32:15.077Z,1.80
2022-12-04T21:34:42.032Z,1.80
2022-12-04T21:37:08.947Z,1.90
2022-12-04T21:39:37.000Z,1.90
2022-12-04T21:42:22.692Z,1.90
2022-12-04T21:44:49.640Z,1.80
2022-12-04T21:47:16.541Z,1.80
2022-12-04T21:49:43.408Z,1.80
2022-12-04T21:52:10.505Z,1.70
2022-12-04T21:54:37.484Z,1.80
2022-12-04T21:57:04.424Z,1.70
2022-12-04T21:59:31.343Z,1.80
2022-12-04T22:01:58.455Z,1.80
2022-12-04T22:04:25.461Z,1.80
2022-12-04T22:06:52.470Z,1.80
2022-12-04T22:09:19.366Z,1.80
2022-12-04T22:11:46.653Z,1.80
2022-12-04T22:14:13.866Z,1.80
2022-12-04T22:16:42.841Z,1.80
2022-12-04T22:19:13.627Z,1.80
2022-12-04T22:21:40.817Z,1.80
2022-12-04T22:24:08.750Z,1.80
2022-12-04T22:26:35.645Z,1.80
2022-12-04T22:29:11.222Z,1.80
2022-12-04T22:31:50.042Z,1.90
2022-12-04T22:34:16.919Z,1.90
2022-12-04T22:36:43.731Z,2.00
2022-12-04T22:39:11.236Z,2.00
2022-12-04T22:41:39.187Z,2.00
2022-12-04T22:44:09.695Z,2.10
2022-12-04T22:46:36.617Z,2.10
2022-12-04T22:49:03.799Z,2.10
2022-12-04T22:51:30.918Z,2.10
2022-12-04T22:53:58.601Z,2.20
2022-12-04T22:56:30.939Z,2.20
2022-12-04T22:58:58.948Z,2.20
2022-12-04T23:01:32.488Z,2.10
2022-12-04T23:04:00.967Z,2.00
2022-12-04T23:06:30.772Z,1.90
2022-12-04T23:09:05.022Z,1.90
2022-12-04T23:11:32.095Z,1.90
2022-12-04T23:14:03.238Z,1.90
2022-12-04T23:16:33.294Z,2.00
2022-12-04T23:19:00.294Z,2.10
2022-12-04T23:21:28.072Z,2.10
2022-12-04T23:23:56.267Z,2.00
2022-12-04T23:26:31.603Z,2.00
2022-12-04T23:28:59.152Z,2.10
2022-12-04T23:31:26.387Z,2.10
2022-12-04T23:33:53.563Z,2.10
2022-12-04T23:36:21.044Z,2.10
2022-12-04T23:38:48.752Z,2.10
2022-12-04T23:41:24.272Z,2.10
2022-12-04T23:43:53.029Z,2.20
2022-12-04T23:46:32.230Z,2.20
2022-12-04T23:49:01.393Z,2.20
2022-12-04T23:51:29.250Z,2.20
2022-12-04T23:53:56.548Z,2.20
2022-12-04T23:56:26.891Z,2.20
2022-12-04T23:58:56.873Z,2.20
